sensor_id;sensor_type;location;lat;lon;timestamp;temperature;humidity
13850;DHT22;6995;52.618;13.488;2022-11-21T02:22:43;0.30;1.40
13850;DHT22;6995;52.618;13.488;2022-11-21T06:58:08;-0.70;1.00
13850;DHT22;6995;52.618;13.488;2022-11-21T07:01:06;-0.80;1.00
13850;DHT22;6995;52.618;13.488;2022-11-21T07:04:04;-0.70;1.00
13850;DHT22;6995;52.618;13.488;2022-11-21T07:10:06;-0.80;1.00
13850;DHT22;6995;52.618;13.488;2022-11-21T07:13:04;-0.90;1.00
13850;DHT22;6995;52.618;13.488;2022-11-21T07:23:20;-1.00;1.00
13850;DHT22;6995;52.618;13.488;2022-11-21T07:25:58;-1.00;1.00
13850;DHT22;6995;52.618;13.488;2022-11-21T07:34:00;-0.80;1.00
13850;DHT22;6995;52.618;13.488;2022-11-21T07:36:57;-0.70;1.00
13850;DHT22;6995;52.618;13.488;2022-11-21T07:39:54;-0.60;1.00
13850;DHT22;6995;52.618;13.488;2022-11-21T07:42:35;-0.50;1.00
13850;DHT22;6995;52.618;13.488;2022-11-21T07:48:28;-0.40;1.00
13850;DHT22;6995;52.618;13.488;2022-11-21T07:51:09;-0.30;1.00
13850;DHT22;6995;52.618;13.488;2022-11-21T07:53:42;-0.30;1.00
13850;DHT22;6995;52.618;13.488;2022-11-21T07:56:11;-0.30;1.00
13850;DHT22;6995;52.618;13.488;2022-11-21T07:58:55;-0.10;1.00
13850;DHT22;6995;52.618;13.488;2022-11-21T08:01:30;-0.20;1.00
13850;DHT22;6995;52.618;13.488;2022-11-21T08:04:06;0.00;1.00
13850;DHT22;6995;52.618;13.488;2022-11-21T08:06:31;-0.20;1.00
13850;DHT22;6995;52.618;13.488;2022-11-21T08:09:00;-0.30;1.00
13850;DHT22;6995;52.618;13.488;2022-11-21T08:11:27;-0.30;1.00
13850;DHT22;6995;52.618;13.488;2022-11-21T08:13:53;-0.20;1.00
13850;DHT22;6995;52.618;13.488;2022-11-21T08:16:19;-0.20;1.00
13850;DHT22;6995;52.618;13.488;2022-11-21T08:18:47;-0.20;1.00
13850;DHT22;6995;52.618;13.488;2022-11-21T08:21:13;-0.10;1.00
13850;DHT22;6995;52.618;13.488;2022-11-21T08:23:39;-0.10;1.00
13850;DHT22;6995;52.618;13.488;2022-11-21T08:26:08;0.00;1.00
13850;DHT22;6995;52.618;13.488;2022-11-21T08:28:38;0.00;1.00
13850;DHT22;6995;52.618;13.488;2022-11-21T08:31:05;0.00;1.00
13850;DHT22;6995;52.618;13.488;2022-11-21T08:33:36;0.00;1.00
13850;DHT22;6995;52.618;13.488;2022-11-21T08:36:06;0.00;1.00
13850;DHT22;6995;52.618;13.488;2022-11-21T08:38:37;0.00;1.00
13850;DHT22;6995;52.618;13.488;2022-11-21T08:41:03;0.00;1.00
13850;DHT22;6995;52.618;13.488;2022-11-21T08:43:54;-0.10;1.00
13850;DHT22;6995;52.618;13.488;2022-11-21T14:07:25;0.50;99.90
13850;DHT22;6995;52.618;13.488;2022-11-21T14:09:56;0.30;99.90
13850;DHT22;6995;52.618;13.488;2022-11-21T14:12:38;0.40;99.90
13850;DHT22;6995;52.618;13.488;2022-11-21T14:17:44;0.40;99.90
13850;DHT22;6995;52.618;13.488;2022-11-21T14:25:36;0.40;99.90
13850;DHT22;6995;52.618;13.488;2022-11-21T14:28:10;0.40;99.90
13850;DHT22;6995;52.618;13.488;2022-11-21T14:30:39;0.40;99.90
13850;DHT22;6995;52.618;13.488;2022-11-21T14:33:22;0.40;99.90
13850;DHT22;6995;52.618;13.488;2022-11-21T14:38:24;0.30;99.90
13850;DHT22;6995;52.618;13.488;2022-11-21T14:41:16;0.40;99.90
13850;DHT22;6995;52.618;13.488;2022-11-21T14:46:32;0.50;99.90
13850;DHT22;6995;52.618;13.488;2022-11-21T14:49:18;0.60;99.90
13850;DHT22;6995;52.618;13.488;2022-11-21T14:54:46;0.60;99.90
13850;DHT22;6995;52.618;13.488;2022-11-21T14:57:39;0.50;99.90
13850;DHT22;6995;52.618;13.488;2022-11-21T15:00:05;0.50;99.90
13850;DHT22;6995;52.618;13.488;2022-11-21T15:02:32;0.40;99.90
13850;DHT22;6995;52.618;13.488;2022-11-21T15:05:13;0.50;99.90
13850;DHT22;6995;52.618;13.488;2022-11-21T15:07:44;0.40;99.90
13850;DHT22;6995;52.618;13.488;2022-11-21T15:10:17;0.40;99.90
13850;DHT22;6995;52.618;13.488;2022-11-21T15:13:10;0.40;99.90
13850;DHT22;6995;52.618;13.488;2022-11-21T15:15:41;0.40;99.90
13850;DHT22;6995;52.618;13.488;2022-11-21T15:18:14;0.30;99.90
13850;DHT22;6995;52.618;13.488;2022-11-21T15:20:47;0.20;99.90
13850;DHT22;6995;52.618;13.488;2022-11-21T15:23:34;0.20;99.90
13850;DHT22;6995;52.618;13.488;2022-11-21T15:26:01;0.20;99.90
13850;DHT22;6995;52.618;13.488;2022-11-21T15:28:30;0.10;99.90
13850;DHT22;6995;52.618;13.488;2022-11-21T15:31:18;0.10;99.90
13850;DHT22;6995;52.618;13.488;2022-11-21T15:34:05;0.20;99.90
13850;DHT22;6995;52.618;13.488;2022-11-21T15:36:32;0.20;99.90
13850;DHT22;6995;52.618;13.488;2022-11-21T15:39:16;0.20;99.90
13850;DHT22;6995;52.618;13.488;2022-11-21T15:41:51;0.30;99.90
13850;DHT22;6995;52.618;13.488;2022-11-21T15:44:21;0.30;99.90
13850;DHT22;6995;52.618;13.488;2022-11-21T15:46:50;0.30;99.90
13850;DHT22;6995;52.618;13.488;2022-11-21T15:49:34;0.20;99.90
13850;DHT22;6995;52.618;13.488;2022-11-21T15:52:08;0.20;99.90
13850;DHT22;6995;52.618;13.488;2022-11-21T15:55:04;0.10;99.90
13850;DHT22;6995;52.618;13.488;2022-11-21T15:57:40;0.10;99.90
13850;DHT22;6995;52.618;13.488;2022-11-21T16:00:08;0.20;99.90
13850;DHT22;6995;52.618;13.488;2022-11-21T16:02:34;0.20;99.90
13850;DHT22;6995;52.618;13.488;2022-11-21T16:05:02;0.20;99.90
13850;DHT22;6995;52.618;13.488;2022-11-21T16:07:28;0.20;99.90
13850;DHT22;6995;52.618;13.488;2022-11-21T16:10:03;0.10;99.90
13850;DHT22;6995;52.618;13.488;2022-11-21T16:12:55;0.10;99.90
13850;DHT22;6995;52.618;13.488;2022-11-21T16:15:21;0.00;99.90
13850;DHT22;6995;52.618;13.488;2022-11-21T16:17:52;-0.10;99.90
13850;DHT22;6995;52.618;13.488;2022-11-21T16:20:22;-0.10;99.90
13850;DHT22;6995;52.618;13.488;2022-11-21T16:22:58;-0.10;99.90
13850;DHT22;6995;52.618;13.488;2022-11-21T16:25:23;0.00;99.90
13850;DHT22;6995;52.618;13.488;2022-11-21T16:27:49;-0.10;99.90
13850;DHT22;6995;52.618;13.488;2022-11-21T16:30:21;-0.10;99.90
13850;DHT22;6995;52.618;13.488;2022-11-21T16:32:50;-0.10;99.90
13850;DHT22;6995;52.618;13.488;2022-11-21T16:35:28;-0.20;99.90
13850;DHT22;6995;52.618;13.488;2022-11-21T16:38:02;-0.20;1.00
13850;DHT22;6995;52.618;13.488;2022-11-21T16:40:57;-0.10;1.00
13850;DHT22;6995;52.618;13.488;2022-11-21T16:43:38;0.00;1.00
13850;DHT22;6995;52.618;13.488;2022-11-21T16:46:44;0.00;1.00
13850;DHT22;6995;52.618;13.488;2022-11-21T16:49:36;0.00;1.40
13850;DHT22;6995;52.618;13.488;2022-11-21T16:52:22;0.00;1.00
13850;DHT22;6995;52.618;13.488;2022-11-21T16:54:48;0.10;1.00
13850;DHT22;6995;52.618;13.488;2022-11-21T16:57:16;0.00;1.40
13850;DHT22;6995;52.618;13.488;2022-11-21T16:59:45;0.00;99.90
13850;DHT22;6995;52.618;13.488;2022-11-21T17:02:11;0.10;1.00
13850;DHT22;6995;52.618;13.488;2022-11-21T17:04:37;0.10;1.00
13850;DHT22;6995;52.618;13.488;2022-11-21T17:07:03;0.20;99.90
13850;DHT22;6995;52.618;13.488;2022-11-21T17:09:28;0.20;99.90
13850;DHT22;6995;52.618;13.488;2022-11-21T17:11:59;0.20;99.90
13850;DHT22;6995;52.618;13.488;2022-11-21T17:14:25;0.20;99.90
13850;DHT22;6995;52.618;13.488;2022-11-21T17:16:53;0.30;99.90
13850;DHT22;6995;52.618;13.488;2022-11-21T17:19:19;0.30;99.90
13850;DHT22;6995;52.618;13.488;2022-11-21T17:21:44;0.20;99.90
13850;DHT22;6995;52.618;13.488;2022-11-21T17:24:13;0.30;99.90
13850;DHT22;6995;52.618;13.488;2022-11-21T17:26:42;0.30;99.90
13850;DHT22;6995;52.618;13.488;2022-11-21T17:29:08;0.30;99.90
13850;DHT22;6995;52.618;13.488;2022-11-21T17:31:34;0.30;99.90
13850;DHT22;6995;52.618;13.488;2022-11-21T17:34:03;0.30;99.90
13850;DHT22;6995;52.618;13.488;2022-11-21T17:36:29;0.40;99.90
13850;DHT22;6995;52.618;13.488;2022-11-21T17:42:26;0.30;99.90
13850;DHT22;6995;52.618;13.488;2022-11-21T17:45:07;0.20;99.90
13850;DHT22;6995;52.618;13.488;2022-11-21T17:47:54;0.20;99.90
13850;DHT22;6995;52.618;13.488;2022-11-21T17:51:09;0.10;99.90
13850;DHT22;6995;52.618;13.488;2022-11-21T17:54:01;0.20;99.90
13850;DHT22;6995;52.618;13.488;2022-11-21T17:56:41;0.10;99.90
13850;DHT22;6995;52.618;13.488;2022-11-21T17:59:17;0.10;99.90
13850;DHT22;6995;52.618;13.488;2022-11-21T18:01:56;0.00;99.90
13850;DHT22;6995;52.618;13.488;2022-11-21T18:04:48;0.00;99.90
13850;DHT22;6995;52.618;13.488;2022-11-21T18:07:14;-0.10;1.40
13850;DHT22;6995;52.618;13.488;2022-11-21T18:09:43;-0.20;1.00
13850;DHT22;6995;52.618;13.488;2022-11-21T18:12:09;-0.30;1.00
13850;DHT22;6995;52.618;13.488;2022-11-21T18:14:34;-0.40;1.00
13850;DHT22;6995;52.618;13.488;2022-11-21T18:17:00;-0.50;1.00
13850;DHT22;6995;52.618;13.488;2022-11-21T18:19:26;-0.70;1.00
13850;DHT22;6995;52.618;13.488;2022-11-21T18:21:51;-0.80;1.00
13850;DHT22;6995;52.618;13.488;2022-11-21T18:24:17;-0.90;1.00
13850;DHT22;6995;52.618;13.488;2022-11-21T18:26:45;-1.00;1.00
13850;DHT22;6995;52.618;13.488;2022-11-21T18:29:11;-1.00;1.00
13850;DHT22;6995;52.618;13.488;2022-11-21T18:31:40;-1.10;1.00
13850;DHT22;6995;52.618;13.488;2022-11-21T18:34:08;-1.10;1.00
13850;DHT22;6995;52.618;13.488;2022-11-21T18:36:34;-1.20;1.00
13850;DHT22;6995;52.618;13.488;2022-11-21T18:39:01;-1.30;1.00
13850;DHT22;6995;52.618;13.488;2022-11-21T18:41:32;-1.30;1.00
13850;DHT22;6995;52.618;13.488;2022-11-21T18:44:03;-1.30;1.00
13850;DHT22;6995;52.618;13.488;2022-11-21T18:46:30;-1.40;1.00
13850;DHT22;6995;52.618;13.488;2022-11-21T18:48:57;-1.40;1.00
13850;DHT22;6995;52.618;13.488;2022-11-21T18:51:27;-1.40;1.00
13850;DHT22;6995;52.618;13.488;2022-11-21T18:53:59;-1.50;1.00
13850;DHT22;6995;52.618;13.488;2022-11-21T18:56:25;-1.50;1.00
13850;DHT22;6995;52.618;13.488;2022-11-21T18:58:52;-1.60;1.00
13850;DHT22;6995;52.618;13.488;2022-11-21T19:01:22;-1.60;1.00
13850;DHT22;6995;52.618;13.488;2022-11-21T19:03:50;-1.50;1.00
13850;DHT22;6995;52.618;13.488;2022-11-21T19:06:18;-1.50;1.00
13850;DHT22;6995;52.618;13.488;2022-11-21T19:08:45;-1.40;1.00
13850;DHT22;6995;52.618;13.488;2022-11-21T19:11:42;-1.30;1.00
13850;DHT22;6995;52.618;13.488;2022-11-21T19:14:15;-1.20;1.00
13850;DHT22;6995;52.618;13.488;2022-11-21T19:16:41;-1.20;1.00
13850;DHT22;6995;52.618;13.488;2022-11-21T19:19:08;-1.20;1.00
13850;DHT22;6995;52.618;13.488;2022-11-21T19:21:35;-1.20;1.00
13850;DHT22;6995;52.618;13.488;2022-11-21T19:24:01;-1.20;1.00
13850;DHT22;6995;52.618;13.488;2022-11-21T19:26:31;-1.20;1.00
13850;DHT22;6995;52.618;13.488;2022-11-21T19:28:57;-1.20;1.00
13850;DHT22;6995;52.618;13.488;2022-11-21T19:31:24;-1.20;1.00
13850;DHT22;6995;52.618;13.488;2022-11-21T19:33:49;-1.20;1.00
13850;DHT22;6995;52.618;13.488;2022-11-21T19:36:25;-1.30;1.00
13850;DHT22;6995;52.618;13.488;2022-11-21T19:38:53;-1.20;1.00
13850;DHT22;6995;52.618;13.488;2022-11-21T19:41:23;-1.20;1.00
13850;DHT22;6995;52.618;13.488;2022-11-21T19:43:54;-1.20;1.00
13850;DHT22;6995;52.618;13.488;2022-11-21T19:46:25;-1.10;1.00
13850;DHT22;6995;52.618;13.488;2022-11-21T19:48:53;-1.10;1.00
13850;DHT22;6995;52.618;13.488;2022-11-21T19:51:21;-1.00;1.00
13850;DHT22;6995;52.618;13.488;2022-11-21T19:53:47;-1.00;1.00
13850;DHT22;6995;52.618;13.488;2022-11-21T19:56:18;-1.10;1.00
13850;DHT22;6995;52.618;13.488;2022-11-21T19:58:45;-1.10;1.00
13850;DHT22;6995;52.618;13.488;2022-11-21T20:01:15;-1.20;1.00
13850;DHT22;6995;52.618;13.488;2022-11-21T20:03:48;-1.20;1.00
13850;DHT22;6995;52.618;13.488;2022-11-21T20:06:27;-1.30;1.00
13850;DHT22;6995;52.618;13.488;2022-11-21T20:08:58;-1.30;1.00
13850;DHT22;6995;52.618;13.488;2022-11-21T20:11:26;-1.40;1.00
13850;DHT22;6995;52.618;13.488;2022-11-21T20:13:52;-1.50;1.00
13850;DHT22;6995;52.618;13.488;2022-11-21T20:18:59;-1.60;1.00
13850;DHT22;6995;52.618;13.488;2022-11-21T20:21:26;-1.60;1.00
13850;DHT22;6995;52.618;13.488;2022-11-21T20:23:52;-1.70;1.00
13850;DHT22;6995;52.618;13.488;2022-11-21T20:26:20;-1.70;1.00
13850;DHT22;6995;52.618;13.488;2022-11-21T20:28:46;-1.70;1.00
13850;DHT22;6995;52.618;13.488;2022-11-21T20:31:15;-1.70;1.00
13850;DHT22;6995;52.618;13.488;2022-11-21T20:33:51;-1.70;1.00
13850;DHT22;6995;52.618;13.488;2022-11-21T20:36:26;-1.70;1.00
13850;DHT22;6995;52.618;13.488;2022-11-21T20:39:16;-1.70;1.00
13850;DHT22;6995;52.618;13.488;2022-11-21T20:41:59;-1.70;1.00
13850;DHT22;6995;52.618;13.488;2022-11-21T20:44:36;-1.70;1.00
13850;DHT22;6995;52.618;13.488;2022-11-21T20:47:06;-1.80;1.00
13850;DHT22;6995;52.618;13.488;2022-11-21T20:53:19;-1.80;1.00
13850;DHT22;6995;52.618;13.488;2022-11-21T20:56:16;-1.80;1.00
13850;DHT22;6995;52.618;13.488;2022-11-21T20:59:10;-1.80;1.00
13850;DHT22;6995;52.618;13.488;2022-11-21T21:02:00;-1.80;1.00
13850;DHT22;6995;52.618;13.488;2022-11-21T21:04:37;-1.80;1.00
13850;DHT22;6995;52.618;13.488;2022-11-21T21:07:13;-1.90;1.00
13850;DHT22;6995;52.618;13.488;2022-11-21T21:09:48;-1.90;1.00
13850;DHT22;6995;52.618;13.488;2022-11-21T21:12:33;-1.90;1.00
13850;DHT22;6995;52.618;13.488;2022-11-21T21:15:01;-2.00;1.00
13850;DHT22;6995;52.618;13.488;2022-11-21T21:17:38;-2.00;1.00
13850;DHT22;6995;52.618;13.488;2022-11-21T21:20:39;-2.00;1.00
13850;DHT22;6995;52.618;13.488;2022-11-21T21:23:39;-2.10;1.00
13850;DHT22;6995;52.618;13.488;2022-11-21T21:26:23;-2.10;1.00
13850;DHT22;6995;52.618;13.488;2022-11-21T21:29:00;-2.00;1.00
13850;DHT22;6995;52.618;13.488;2022-11-21T21:31:44;-1.90;1.00
13850;DHT22;6995;52.618;13.488;2022-11-21T21:34:21;-1.80;1.00
13850;DHT22;6995;52.618;13.488;2022-11-21T21:36:54;-1.60;1.00
13850;DHT22;6995;52.618;13.488;2022-11-21T21:39:27;-1.40;1.00
13850;DHT22;6995;52.618;13.488;2022-11-21T21:42:02;-1.30;1.00
13850;DHT22;6995;52.618;13.488;2022-11-21T21:44:28;-1.20;1.00
13850;DHT22;6995;52.618;13.488;2022-11-21T21:47:03;-1.10;1.00
13850;DHT22;6995;52.618;13.488;2022-11-21T21:49:37;-1.00;1.00
13850;DHT22;6995;52.618;13.488;2022-11-21T21:52:05;-0.90;1.00
13850;DHT22;6995;52.618;13.488;2022-11-21T21:54:42;-0.90;1.00
13850;DHT22;6995;52.618;13.488;2022-11-21T21:57:11;-0.90;1.00
13850;DHT22;6995;52.618;13.488;2022-11-21T21:59:45;-0.80;1.00
13850;DHT22;6995;52.618;13.488;2022-11-21T22:02:22;-0.80;1.00
13850;DHT22;6995;52.618;13.488;2022-11-21T22:05:05;-0.80;1.00
13850;DHT22;6995;52.618;13.488;2022-11-21T22:07:34;-0.70;1.00
13850;DHT22;6995;52.618;13.488;2022-11-21T22:10:08;-0.70;1.00
13850;DHT22;6995;52.618;13.488;2022-11-21T22:12:54;-0.70;1.00
13850;DHT22;6995;52.618;13.488;2022-11-21T22:15:48;-0.60;1.00
13850;DHT22;6995;52.618;13.488;2022-11-21T22:18:19;-0.70;1.00
13850;DHT22;6995;52.618;13.488;2022-11-21T22:20:54;-0.70;1.00
13850;DHT22;6995;52.618;13.488;2022-11-21T22:23:28;-0.80;1.00
13850;DHT22;6995;52.618;13.488;2022-11-21T22:25:58;-0.90;1.00
13850;DHT22;6995;52.618;13.488;2022-11-21T22:28:29;-1.10;1.00
13850;DHT22;6995;52.618;13.488;2022-11-21T22:31:21;-1.20;1.00
13850;DHT22;6995;52.618;13.488;2022-11-21T22:33:52;-1.40;1.00
13850;DHT22;6995;52.618;13.488;2022-11-21T22:39:31;-1.50;1.00
13850;DHT22;6995;52.618;13.488;2022-11-21T22:41:57;-1.60;1.00
13850;DHT22;6995;52.618;13.488;2022-11-21T22:44:23;-1.60;1.00
13850;DHT22;6995;52.618;13.488;2022-11-21T22:47:31;-1.70;1.00
13850;DHT22;6995;52.618;13.488;2022-11-21T22:50:08;-1.70;1.00
13850;DHT22;6995;52.618;13.488;2022-11-21T22:52:36;-1.80;1.00
13850;DHT22;6995;52.618;13.488;2022-11-21T22:55:14;-1.80;1.00
13850;DHT22;6995;52.618;13.488;2022-11-21T22:57:53;-1.90;1.00
13850;DHT22;6995;52.618;13.488;2022-11-21T23:00:28;-1.90;1.00
13850;DHT22;6995;52.618;13.488;2022-11-21T23:02:59;-1.90;1.00
13850;DHT22;6995;52.618;13.488;2022-11-21T23:05:29;-1.90;1.00
13850;DHT22;6995;52.618;13.488;2022-11-21T23:08:06;-1.90;1.00
13850;DHT22;6995;52.618;13.488;2022-11-21T23:10:48;-1.90;1.00
13850;DHT22;6995;52.618;13.488;2022-11-21T23:13:37;-1.90;1.00
13850;DHT22;6995;52.618;13.488;2022-11-21T23:16:04;-1.80;1.00
13850;DHT22;6995;52.618;13.488;2022-11-21T23:18:32;-1.80;1.00
13850;DHT22;6995;52.618;13.488;2022-11-21T23:20:59;-1.90;1.00
13850;DHT22;6995;52.618;13.488;2022-11-21T23:23:42;-1.90;1.00
13850;DHT22;6995;52.618;13.488;2022-11-21T23:26:20;-1.90;1.00
13850;DHT22;6995;52.618;13.488;2022-11-21T23:29:03;-1.80;1.00
13850;DHT22;6995;52.618;13.488;2022-11-21T23:31:41;-1.80;1.00
13850;DHT22;6995;52.618;13.488;2022-11-21T23:34:17;-1.80;1.00
13850;DHT22;6995;52.618;13.488;2022-11-21T23:36:49;-1.80;1.00
13850;DHT22;6995;52.618;13.488;2022-11-21T23:39:47;-1.80;1.00
13850;DHT22;6995;52.618;13.488;2022-11-21T23:42:13;-1.80;1.00
13850;DHT22;6995;52.618;13.488;2022-11-21T23:44:39;-1.80;1.00
13850;DHT22;6995;52.618;13.488;2022-11-21T23:47:10;-1.80;1.00
13850;DHT22;6995;52.618;13.488;2022-11-21T23:49:36;-1.80;1.00
13850;DHT22;6995;52.618;13.488;2022-11-21T23:52:02;-1.80;1.00
13850;DHT22;6995;52.618;13.488;2022-11-21T23:54:27;-1.80;1.00
13850;DHT22;6995;52.618;13.488;2022-11-21T23:56:53;-1.80;1.00
13850;DHT22;6995;52.618;13.488;2022-11-21T23:59:19;-1.70;1.00
